sensor_id;sensor_type;location;lat;lon;timestamp;P1;durP1;ratioP1;P2;durP2;ratioP2
43124;SDS011;49182;50.788;7.318;2022-10-03T00:01:50;19.60;;;9.25;;
43124;SDS011;49182;50.788;7.318;2022-10-03T00:04:35;17.10;;;8.90;;
43124;SDS011;49182;50.788;7.318;2022-10-03T00:07:13;14.70;;;6.93;;
43124;SDS011;49182;50.788;7.318;2022-10-03T00:09:52;17.23;;;8.10;;
43124;SDS011;49182;50.788;7.318;2022-10-03T00:12:40;13.32;;;5.93;;
43124;SDS011;49182;50.788;7.318;2022-10-03T00:15:17;20.30;;;8.45;;
43124;SDS011;49182;50.788;7.318;2022-10-03T00:17:50;16.35;;;7.43;;
43124;SDS011;49182;50.788;7.318;2022-10-03T00:20:33;14.57;;;5.65;;
43124;SDS011;49182;50.788;7.318;2022-10-03T00:23:10;14.15;;;6.18;;
43124;SDS011;49182;50.788;7.318;2022-10-03T00:25:45;12.70;;;4.97;;
43124;SDS011;49182;50.788;7.318;2022-10-03T00:28:23;12.27;;;5.53;;
43124;SDS011;49182;50.788;7.318;2022-10-03T00:31:08;13.45;;;4.90;;
43124;SDS011;49182;50.788;7.318;2022-10-03T00:33:42;23.80;;;3.90;;
43124;SDS011;49182;50.788;7.318;2022-10-03T00:36:20;15.43;;;3.88;;
43124;SDS011;49182;50.788;7.318;2022-10-03T00:39:08;8.75;;;3.53;;
43124;SDS011;49182;50.788;7.318;2022-10-03T00:41:54;10.15;;;3.78;;
43124;SDS011;49182;50.788;7.318;2022-10-03T00:44:44;8.85;;;3.63;;
43124;SDS011;49182;50.788;7.318;2022-10-03T00:47:35;19.48;;;6.22;;
43124;SDS011;49182;50.788;7.318;2022-10-03T00:50:27;16.40;;;6.15;;
43124;SDS011;49182;50.788;7.318;2022-10-03T00:53:20;27.58;;;7.85;;
43124;SDS011;49182;50.788;7.318;2022-10-03T00:56:02;34.53;;;10.02;;
43124;SDS011;49182;50.788;7.318;2022-10-03T00:58:44;28.55;;;8.50;;
43124;SDS011;49182;50.788;7.318;2022-10-03T01:01:29;22.60;;;9.48;;
43124;SDS011;49182;50.788;7.318;2022-10-03T01:04:06;22.00;;;7.57;;
43124;SDS011;49182;50.788;7.318;2022-10-03T01:06:43;20.20;;;6.28;;
43124;SDS011;49182;50.788;7.318;2022-10-03T01:09:20;24.27;;;7.18;;
43124;SDS011;49182;50.788;7.318;2022-10-03T01:12:01;16.50;;;6.25;;
43124;SDS011;49182;50.788;7.318;2022-10-03T01:14:44;16.50;;;6.45;;
43124;SDS011;49182;50.788;7.318;2022-10-03T01:17:22;18.80;;;5.38;;
43124;SDS011;49182;50.788;7.318;2022-10-03T01:19:58;16.77;;;5.50;;
43124;SDS011;49182;50.788;7.318;2022-10-03T01:25:39;9.48;;;3.67;;
43124;SDS011;49182;50.788;7.318;2022-10-03T01:31:11;16.92;;;4.35;;
43124;SDS011;49182;50.788;7.318;2022-10-03T01:33:43;22.50;;;4.50;;
43124;SDS011;49182;50.788;7.318;2022-10-03T01:36:18;11.85;;;3.78;;
43124;SDS011;49182;50.788;7.318;2022-10-03T01:38:54;14.05;;;3.45;;
43124;SDS011;49182;50.788;7.318;2022-10-03T01:41:27;18.15;;;3.67;;
43124;SDS011;49182;50.788;7.318;2022-10-03T01:44:03;8.10;;;2.78;;
43124;SDS011;49182;50.788;7.318;2022-10-03T01:46:39;9.05;;;2.97;;
43124;SDS011;49182;50.788;7.318;2022-10-03T01:49:14;14.88;;;3.80;;
43124;SDS011;49182;50.788;7.318;2022-10-03T01:51:51;29.20;;;4.50;;
43124;SDS011;49182;50.788;7.318;2022-10-03T01:54:27;19.63;;;5.38;;
43124;SDS011;49182;50.788;7.318;2022-10-03T01:57:02;13.15;;;4.93;;
43124;SDS011;49182;50.788;7.318;2022-10-03T01:59:40;16.98;;;5.75;;
43124;SDS011;49182;50.788;7.318;2022-10-03T02:02:13;30.38;;;8.93;;
43124;SDS011;49182;50.788;7.318;2022-10-03T02:04:50;25.13;;;6.63;;
43124;SDS011;49182;50.788;7.318;2022-10-03T02:07:24;22.38;;;5.57;;
43124;SDS011;49182;50.788;7.318;2022-10-03T02:10:02;14.00;;;4.82;;
43124;SDS011;49182;50.788;7.318;2022-10-03T02:12:38;16.45;;;4.60;;
43124;SDS011;49182;50.788;7.318;2022-10-03T02:15:14;11.90;;;4.03;;
43124;SDS011;49182;50.788;7.318;2022-10-03T02:17:50;12.18;;;3.60;;
43124;SDS011;49182;50.788;7.318;2022-10-03T02:20:24;9.75;;;3.60;;
43124;SDS011;49182;50.788;7.318;2022-10-03T02:22:59;9.45;;;3.40;;
43124;SDS011;49182;50.788;7.318;2022-10-03T02:25:35;16.52;;;4.13;;
43124;SDS011;49182;50.788;7.318;2022-10-03T02:28:24;11.57;;;3.65;;
43124;SDS011;49182;50.788;7.318;2022-10-03T02:31:10;12.82;;;3.92;;
43124;SDS011;49182;50.788;7.318;2022-10-03T02:33:54;10.52;;;4.25;;
43124;SDS011;49182;50.788;7.318;2022-10-03T02:36:47;11.18;;;4.05;;
43124;SDS011;49182;50.788;7.318;2022-10-03T02:46:02;9.77;;;4.07;;
43124;SDS011;49182;50.788;7.318;2022-10-03T02:48:58;14.82;;;4.75;;
43124;SDS011;49182;50.788;7.318;2022-10-03T02:52:03;16.00;;;5.00;;
43124;SDS011;49182;50.788;7.318;2022-10-03T02:54:58;8.18;;;4.00;;
43124;SDS011;49182;50.788;7.318;2022-10-03T03:00:34;9.88;;;3.80;;
43124;SDS011;49182;50.788;7.318;2022-10-03T03:03:29;13.07;;;3.40;;
43124;SDS011;49182;50.788;7.318;2022-10-03T03:06:12;8.93;;;3.33;;
43124;SDS011;49182;50.788;7.318;2022-10-03T03:12:07;8.45;;;3.38;;
43124;SDS011;49182;50.788;7.318;2022-10-03T03:15:00;11.15;;;3.75;;
43124;SDS011;49182;50.788;7.318;2022-10-03T03:17:51;10.48;;;3.70;;
43124;SDS011;49182;50.788;7.318;2022-10-03T03:20:31;11.40;;;4.07;;
43124;SDS011;49182;50.788;7.318;2022-10-03T03:23:27;8.02;;;3.53;;
43124;SDS011;49182;50.788;7.318;2022-10-03T03:26:17;10.48;;;3.22;;
43124;SDS011;49182;50.788;7.318;2022-10-03T03:28:59;8.88;;;3.13;;
43124;SDS011;49182;50.788;7.318;2022-10-03T03:31:35;9.88;;;3.25;;
43124;SDS011;49182;50.788;7.318;2022-10-03T03:34:12;8.18;;;3.67;;
43124;SDS011;49182;50.788;7.318;2022-10-03T03:36:48;8.35;;;3.10;;
43124;SDS011;49182;50.788;7.318;2022-10-03T03:39:28;7.53;;;3.10;;
43124;SDS011;49182;50.788;7.318;2022-10-03T03:48:04;6.35;;;2.45;;
43124;SDS011;49182;50.788;7.318;2022-10-03T03:50:54;10.13;;;3.10;;
43124;SDS011;49182;50.788;7.318;2022-10-03T03:53:43;6.82;;;2.78;;
43124;SDS011;49182;50.788;7.318;2022-10-03T03:56:28;5.30;;;2.47;;
43124;SDS011;49182;50.788;7.318;2022-10-03T03:59:12;7.10;;;2.67;;
43124;SDS011;49182;50.788;7.318;2022-10-03T04:01:49;5.93;;;2.78;;
43124;SDS011;49182;50.788;7.318;2022-10-03T04:04:34;6.50;;;2.70;;
43124;SDS011;49182;50.788;7.318;2022-10-03T04:07:13;7.00;;;3.30;;
43124;SDS011;49182;50.788;7.318;2022-10-03T04:09:57;8.48;;;3.20;;
43124;SDS011;49182;50.788;7.318;2022-10-03T04:12:45;8.15;;;2.97;;
43124;SDS011;49182;50.788;7.318;2022-10-03T04:15:25;7.97;;;2.70;;
43124;SDS011;49182;50.788;7.318;2022-10-03T04:18:16;7.00;;;3.25;;
43124;SDS011;49182;50.788;7.318;2022-10-03T04:21:04;6.82;;;2.85;;
43124;SDS011;49182;50.788;7.318;2022-10-03T04:23:50;8.82;;;3.63;;
43124;SDS011;49182;50.788;7.318;2022-10-03T04:26:34;7.85;;;3.53;;
43124;SDS011;49182;50.788;7.318;2022-10-03T04:32:35;9.13;;;2.72;;
43124;SDS011;49182;50.788;7.318;2022-10-03T04:35:16;5.88;;;2.88;;
43124;SDS011;49182;50.788;7.318;2022-10-03T04:37:59;6.38;;;2.58;;
43124;SDS011;49182;50.788;7.318;2022-10-03T04:40:39;19.90;;;5.90;;
43124;SDS011;49182;50.788;7.318;2022-10-03T04:43:17;7.10;;;2.83;;
43124;SDS011;49182;50.788;7.318;2022-10-03T04:45:57;6.93;;;2.63;;
43124;SDS011;49182;50.788;7.318;2022-10-03T04:48:36;8.20;;;4.40;;
43124;SDS011;49182;50.788;7.318;2022-10-03T04:51:11;7.47;;;3.47;;
43124;SDS011;49182;50.788;7.318;2022-10-03T04:53:50;7.28;;;3.53;;
43124;SDS011;49182;50.788;7.318;2022-10-03T04:56:22;7.97;;;3.42;;
43124;SDS011;49182;50.788;7.318;2022-10-03T04:59:10;9.98;;;3.78;;
43124;SDS011;49182;50.788;7.318;2022-10-03T05:01:51;6.93;;;3.17;;
43124;SDS011;49182;50.788;7.318;2022-10-03T05:04:23;5.75;;;2.35;;
43124;SDS011;49182;50.788;7.318;2022-10-03T05:06:58;9.85;;;2.70;;
43124;SDS011;49182;50.788;7.318;2022-10-03T05:09:32;8.70;;;3.03;;
43124;SDS011;49182;50.788;7.318;2022-10-03T05:12:10;9.70;;;3.65;;
43124;SDS011;49182;50.788;7.318;2022-10-03T05:14:50;7.97;;;3.50;;
43124;SDS011;49182;50.788;7.318;2022-10-03T05:17:27;8.98;;;3.08;;
43124;SDS011;49182;50.788;7.318;2022-10-03T05:20:16;5.28;;;2.85;;
43124;SDS011;49182;50.788;7.318;2022-10-03T05:22:51;9.50;;;3.10;;
43124;SDS011;49182;50.788;7.318;2022-10-03T05:25:26;6.30;;;2.97;;
43124;SDS011;49182;50.788;7.318;2022-10-03T05:28:01;15.57;;;2.95;;
43124;SDS011;49182;50.788;7.318;2022-10-03T05:30:43;7.10;;;2.40;;
43124;SDS011;49182;50.788;7.318;2022-10-03T05:33:18;5.32;;;2.28;;
43124;SDS011;49182;50.788;7.318;2022-10-03T05:35:58;7.60;;;2.58;;
43124;SDS011;49182;50.788;7.318;2022-10-03T05:38:39;7.95;;;2.80;;
43124;SDS011;49182;50.788;7.318;2022-10-03T05:41:25;13.53;;;3.37;;
43124;SDS011;49182;50.788;7.318;2022-10-03T05:43:57;12.25;;;2.97;;
43124;SDS011;49182;50.788;7.318;2022-10-03T05:46:44;7.03;;;2.80;;
43124;SDS011;49182;50.788;7.318;2022-10-03T05:52:28;8.18;;;3.08;;
43124;SDS011;49182;50.788;7.318;2022-10-03T05:55:17;6.32;;;2.88;;
43124;SDS011;49182;50.788;7.318;2022-10-03T05:58:05;12.23;;;3.30;;
43124;SDS011;49182;50.788;7.318;2022-10-03T06:03:51;15.88;;;3.85;;
43124;SDS011;49182;50.788;7.318;2022-10-03T06:06:41;26.50;;;5.07;;
43124;SDS011;49182;50.788;7.318;2022-10-03T06:09:28;11.18;;;3.80;;
43124;SDS011;49182;50.788;7.318;2022-10-03T06:12:08;12.27;;;4.00;;
43124;SDS011;49182;50.788;7.318;2022-10-03T06:24:10;14.30;;;4.30;;
43124;SDS011;49182;50.788;7.318;2022-10-03T06:26:57;14.05;;;4.65;;
43124;SDS011;49182;50.788;7.318;2022-10-03T06:30:02;12.07;;;4.68;;
43124;SDS011;49182;50.788;7.318;2022-10-03T06:32:42;15.82;;;5.00;;
43124;SDS011;49182;50.788;7.318;2022-10-03T06:42:06;15.98;;;5.00;;
43124;SDS011;49182;50.788;7.318;2022-10-03T06:51:30;10.95;;;3.90;;
43124;SDS011;49182;50.788;7.318;2022-10-03T06:54:38;9.02;;;3.83;;
43124;SDS011;49182;50.788;7.318;2022-10-03T07:00:16;7.65;;;3.55;;
43124;SDS011;49182;50.788;7.318;2022-10-03T07:02:49;8.77;;;4.15;;
43124;SDS011;49182;50.788;7.318;2022-10-03T07:11:45;11.50;;;4.60;;
43124;SDS011;49182;50.788;7.318;2022-10-03T07:14:48;8.15;;;4.03;;
43124;SDS011;49182;50.788;7.318;2022-10-03T07:17:43;11.15;;;4.30;;
43124;SDS011;49182;50.788;7.318;2022-10-03T07:23:37;10.48;;;4.10;;
43124;SDS011;49182;50.788;7.318;2022-10-03T07:32:22;8.45;;;3.63;;
43124;SDS011;49182;50.788;7.318;2022-10-03T07:35:07;9.95;;;3.83;;
43124;SDS011;49182;50.788;7.318;2022-10-03T07:38:06;9.00;;;4.10;;
43124;SDS011;49182;50.788;7.318;2022-10-03T07:41:06;7.82;;;3.50;;
43124;SDS011;49182;50.788;7.318;2022-10-03T07:44:05;9.85;;;4.05;;
43124;SDS011;49182;50.788;7.318;2022-10-03T07:46:50;8.93;;;3.83;;
43124;SDS011;49182;50.788;7.318;2022-10-03T07:49:44;9.90;;;3.55;;
43124;SDS011;49182;50.788;7.318;2022-10-03T07:52:35;8.25;;;3.60;;
43124;SDS011;49182;50.788;7.318;2022-10-03T07:55:21;7.32;;;3.70;;
43124;SDS011;49182;50.788;7.318;2022-10-03T07:57:58;9.32;;;4.25;;
43124;SDS011;49182;50.788;7.318;2022-10-03T08:00:45;9.85;;;3.40;;
43124;SDS011;49182;50.788;7.318;2022-10-03T08:03:52;11.48;;;4.13;;
43124;SDS011;49182;50.788;7.318;2022-10-03T08:06:38;7.95;;;3.70;;
43124;SDS011;49182;50.788;7.318;2022-10-03T08:15:07;10.65;;;4.07;;
43124;SDS011;49182;50.788;7.318;2022-10-03T08:17:47;13.50;;;4.13;;
43124;SDS011;49182;50.788;7.318;2022-10-03T08:20:42;12.77;;;4.43;;
43124;SDS011;49182;50.788;7.318;2022-10-03T08:26:26;9.50;;;4.13;;
43124;SDS011;49182;50.788;7.318;2022-10-03T08:29:19;10.95;;;4.40;;
43124;SDS011;49182;50.788;7.318;2022-10-03T08:35:29;14.75;;;4.65;;
43124;SDS011;49182;50.788;7.318;2022-10-03T08:44:25;13.75;;;4.78;;
43124;SDS011;49182;50.788;7.318;2022-10-03T08:47:11;17.13;;;4.80;;
43124;SDS011;49182;50.788;7.318;2022-10-03T08:53:01;14.82;;;5.45;;
43124;SDS011;49182;50.788;7.318;2022-10-03T08:55:58;17.63;;;5.65;;
43124;SDS011;49182;50.788;7.318;2022-10-03T08:58:37;13.68;;;5.65;;
43124;SDS011;49182;50.788;7.318;2022-10-03T09:01:35;12.38;;;5.35;;
43124;SDS011;49182;50.788;7.318;2022-10-03T09:04:38;22.50;;;5.70;;
43124;SDS011;49182;50.788;7.318;2022-10-03T09:07:32;11.07;;;5.32;;
43124;SDS011;49182;50.788;7.318;2022-10-03T09:16:32;15.50;;;5.20;;
43124;SDS011;49182;50.788;7.318;2022-10-03T09:22:29;14.35;;;5.18;;
43124;SDS011;49182;50.788;7.318;2022-10-03T09:25:20;19.08;;;4.65;;
43124;SDS011;49182;50.788;7.318;2022-10-03T09:31:11;14.35;;;4.45;;
43124;SDS011;49182;50.788;7.318;2022-10-03T09:37:10;13.15;;;4.95;;
43124;SDS011;49182;50.788;7.318;2022-10-03T09:43:25;14.63;;;4.45;;
43124;SDS011;49182;50.788;7.318;2022-10-03T09:46:16;12.50;;;4.93;;
43124;SDS011;49182;50.788;7.318;2022-10-03T09:49:20;12.98;;;3.65;;
43124;SDS011;49182;50.788;7.318;2022-10-03T09:52:08;15.88;;;4.00;;
43124;SDS011;49182;50.788;7.318;2022-10-03T09:54:55;16.08;;;3.50;;
43124;SDS011;49182;50.788;7.318;2022-10-03T09:58:01;11.60;;;3.30;;
43124;SDS011;49182;50.788;7.318;2022-10-03T10:00:45;14.25;;;4.65;;
43124;SDS011;49182;50.788;7.318;2022-10-03T10:03:45;14.77;;;4.40;;
43124;SDS011;49182;50.788;7.318;2022-10-03T10:06:55;13.85;;;3.80;;
43124;SDS011;49182;50.788;7.318;2022-10-03T10:09:58;8.10;;;2.75;;
43124;SDS011;49182;50.788;7.318;2022-10-03T10:16:02;10.45;;;3.55;;
43124;SDS011;49182;50.788;7.318;2022-10-03T10:22:11;16.08;;;3.00;;
43124;SDS011;49182;50.788;7.318;2022-10-03T10:25:14;10.20;;;2.60;;
43124;SDS011;49182;50.788;7.318;2022-10-03T10:34:18;10.55;;;3.28;;
43124;SDS011;49182;50.788;7.318;2022-10-03T10:40:41;12.98;;;2.70;;
43124;SDS011;49182;50.788;7.318;2022-10-03T10:43:49;12.23;;;2.78;;
43124;SDS011;49182;50.788;7.318;2022-10-03T10:46:54;13.05;;;3.03;;
43124;SDS011;49182;50.788;7.318;2022-10-03T10:56:12;8.18;;;1.85;;
43124;SDS011;49182;50.788;7.318;2022-10-03T11:11:57;9.57;;;1.88;;
43124;SDS011;49182;50.788;7.318;2022-10-03T11:15:21;9.35;;;2.22;;
43124;SDS011;49182;50.788;7.318;2022-10-03T11:18:22;8.90;;;2.40;;
43124;SDS011;49182;50.788;7.318;2022-10-03T11:21:17;7.75;;;1.98;;
43124;SDS011;49182;50.788;7.318;2022-10-03T11:24:24;7.25;;;1.92;;
43124;SDS011;49182;50.788;7.318;2022-10-03T11:30:30;8.05;;;2.20;;
43124;SDS011;49182;50.788;7.318;2022-10-03T11:36:42;5.72;;;1.50;;
43124;SDS011;49182;50.788;7.318;2022-10-03T11:39:22;7.38;;;1.35;;
43124;SDS011;49182;50.788;7.318;2022-10-03T11:41:59;5.43;;;1.25;;
43124;SDS011;49182;50.788;7.318;2022-10-03T11:44:39;7.57;;;1.50;;
43124;SDS011;49182;50.788;7.318;2022-10-03T11:47:17;7.57;;;1.25;;
43124;SDS011;49182;50.788;7.318;2022-10-03T11:50:19;5.43;;;1.00;;
43124;SDS011;49182;50.788;7.318;2022-10-03T11:53:00;7.65;;;1.77;;
43124;SDS011;49182;50.788;7.318;2022-10-03T11:55:40;6.10;;;1.77;;
43124;SDS011;49182;50.788;7.318;2022-10-03T11:58:16;6.22;;;1.50;;
43124;SDS011;49182;50.788;7.318;2022-10-03T12:01:24;17.27;;;3.80;;
43124;SDS011;49182;50.788;7.318;2022-10-03T12:04:02;6.53;;;1.65;;
43124;SDS011;49182;50.788;7.318;2022-10-03T12:09:27;7.85;;;1.55;;
43124;SDS011;49182;50.788;7.318;2022-10-03T12:12:04;7.15;;;1.50;;
43124;SDS011;49182;50.788;7.318;2022-10-03T12:14:39;6.47;;;1.77;;
43124;SDS011;49182;50.788;7.318;2022-10-03T12:17:10;8.90;;;2.40;;
43124;SDS011;49182;50.788;7.318;2022-10-03T12:19:41;5.00;;;1.15;;
43124;SDS011;49182;50.788;7.318;2022-10-03T12:22:23;7.30;;;1.23;;
43124;SDS011;49182;50.788;7.318;2022-10-03T12:25:03;7.75;;;1.52;;
43124;SDS011;49182;50.788;7.318;2022-10-03T12:27:42;5.70;;;1.10;;
43124;SDS011;49182;50.788;7.318;2022-10-03T12:30:17;7.22;;;1.75;;
43124;SDS011;49182;50.788;7.318;2022-10-03T12:32:50;9.35;;;1.88;;
43124;SDS011;49182;50.788;7.318;2022-10-03T12:35:34;6.63;;;1.33;;
43124;SDS011;49182;50.788;7.318;2022-10-03T12:38:13;4.25;;;0.90;;
43124;SDS011;49182;50.788;7.318;2022-10-03T12:40:50;7.68;;;1.80;;
43124;SDS011;49182;50.788;7.318;2022-10-03T12:43:29;6.15;;;1.30;;
43124;SDS011;49182;50.788;7.318;2022-10-03T12:46:05;6.22;;;2.15;;
43124;SDS011;49182;50.788;7.318;2022-10-03T12:48:41;7.80;;;1.27;;
43124;SDS011;49182;50.788;7.318;2022-10-03T12:51:17;6.20;;;1.40;;
43124;SDS011;49182;50.788;7.318;2022-10-03T12:53:56;6.57;;;1.27;;
43124;SDS011;49182;50.788;7.318;2022-10-03T12:56:35;7.70;;;1.33;;
43124;SDS011;49182;50.788;7.318;2022-10-03T12:59:12;5.47;;;1.13;;
43124;SDS011;49182;50.788;7.318;2022-10-03T13:01:51;8.45;;;2.35;;
43124;SDS011;49182;50.788;7.318;2022-10-03T13:04:33;6.45;;;1.50;;
43124;SDS011;49182;50.788;7.318;2022-10-03T13:07:13;6.93;;;1.42;;
43124;SDS011;49182;50.788;7.318;2022-10-03T13:12:50;9.27;;;1.50;;
43124;SDS011;49182;50.788;7.318;2022-10-03T13:18:28;9.35;;;1.50;;
43124;SDS011;49182;50.788;7.318;2022-10-03T13:21:05;7.20;;;1.77;;
43124;SDS011;49182;50.788;7.318;2022-10-03T13:23:57;9.75;;;1.30;;
43124;SDS011;49182;50.788;7.318;2022-10-03T13:26:35;7.13;;;1.60;;
43124;SDS011;49182;50.788;7.318;2022-10-03T13:29:14;7.00;;;1.40;;
43124;SDS011;49182;50.788;7.318;2022-10-03T13:31:57;5.93;;;1.65;;
43124;SDS011;49182;50.788;7.318;2022-10-03T13:34:32;4.97;;;1.40;;
43124;SDS011;49182;50.788;7.318;2022-10-03T13:37:10;5.65;;;1.50;;
43124;SDS011;49182;50.788;7.318;2022-10-03T13:39:44;6.32;;;1.77;;
43124;SDS011;49182;50.788;7.318;2022-10-03T13:42:15;4.30;;;1.10;;
43124;SDS011;49182;50.788;7.318;2022-10-03T13:44:47;6.45;;;1.95;;
43124;SDS011;49182;50.788;7.318;2022-10-03T13:47:33;5.90;;;1.20;;
43124;SDS011;49182;50.788;7.318;2022-10-03T13:50:12;6.50;;;1.35;;
43124;SDS011;49182;50.788;7.318;2022-10-03T13:52:44;5.32;;;1.30;;
43124;SDS011;49182;50.788;7.318;2022-10-03T13:55:21;5.82;;;1.52;;
43124;SDS011;49182;50.788;7.318;2022-10-03T14:01:16;7.20;;;1.20;;
43124;SDS011;49182;50.788;7.318;2022-10-03T14:04:02;7.05;;;1.30;;
43124;SDS011;49182;50.788;7.318;2022-10-03T14:06:41;8.50;;;1.65;;
43124;SDS011;49182;50.788;7.318;2022-10-03T14:09:18;8.45;;;2.13;;
43124;SDS011;49182;50.788;7.318;2022-10-03T14:11:55;6.60;;;1.48;;
43124;SDS011;49182;50.788;7.318;2022-10-03T14:14:42;6.97;;;1.30;;
43124;SDS011;49182;50.788;7.318;2022-10-03T14:17:20;5.55;;;1.45;;
43124;SDS011;49182;50.788;7.318;2022-10-03T14:19:57;10.02;;;1.50;;
43124;SDS011;49182;50.788;7.318;2022-10-03T14:22:39;3.78;;;1.23;;
43124;SDS011;49182;50.788;7.318;2022-10-03T14:25:19;6.10;;;1.75;;
43124;SDS011;49182;50.788;7.318;2022-10-03T14:27:51;6.63;;;1.30;;
43124;SDS011;49182;50.788;7.318;2022-10-03T14:30:21;7.72;;;1.40;;
43124;SDS011;49182;50.788;7.318;2022-10-03T14:32:53;7.30;;;1.48;;
43124;SDS011;49182;50.788;7.318;2022-10-03T14:35:38;4.07;;;1.30;;
43124;SDS011;49182;50.788;7.318;2022-10-03T14:38:20;8.85;;;1.45;;
43124;SDS011;49182;50.788;7.318;2022-10-03T14:41:01;5.10;;;1.50;;
43124;SDS011;49182;50.788;7.318;2022-10-03T14:43:32;7.28;;;1.45;;
43124;SDS011;49182;50.788;7.318;2022-10-03T14:46:03;7.00;;;1.50;;
43124;SDS011;49182;50.788;7.318;2022-10-03T14:48:33;7.38;;;1.48;;
43124;SDS011;49182;50.788;7.318;2022-10-03T14:53:34;9.23;;;1.90;;
43124;SDS011;49182;50.788;7.318;2022-10-03T14:56:05;6.53;;;1.50;;
43124;SDS011;49182;50.788;7.318;2022-10-03T14:58:36;7.20;;;1.67;;
43124;SDS011;49182;50.788;7.318;2022-10-03T15:01:10;6.78;;;1.38;;
43124;SDS011;49182;50.788;7.318;2022-10-03T15:03:41;4.75;;;1.40;;
43124;SDS011;49182;50.788;7.318;2022-10-03T15:09:15;7.10;;;2.17;;
43124;SDS011;49182;50.788;7.318;2022-10-03T15:11:49;9.63;;;2.03;;
43124;SDS011;49182;50.788;7.318;2022-10-03T15:14:19;6.40;;;1.55;;
43124;SDS011;49182;50.788;7.318;2022-10-03T15:16:50;7.75;;;1.42;;
43124;SDS011;49182;50.788;7.318;2022-10-03T15:19:19;4.82;;;1.33;;
43124;SDS011;49182;50.788;7.318;2022-10-03T15:21:51;9.45;;;1.67;;
43124;SDS011;49182;50.788;7.318;2022-10-03T15:24:19;8.90;;;1.70;;
43124;SDS011;49182;50.788;7.318;2022-10-03T15:26:54;4.25;;;1.40;;
43124;SDS011;49182;50.788;7.318;2022-10-03T15:29:28;6.97;;;1.88;;
43124;SDS011;49182;50.788;7.318;2022-10-03T15:31:56;8.77;;;2.08;;
43124;SDS011;49182;50.788;7.318;2022-10-03T15:34:24;4.18;;;1.30;;
43124;SDS011;49182;50.788;7.318;2022-10-03T15:36:56;6.05;;;1.42;;
43124;SDS011;49182;50.788;7.318;2022-10-03T15:39:26;12.35;;;1.70;;
43124;SDS011;49182;50.788;7.318;2022-10-03T15:42:01;9.50;;;1.47;;
43124;SDS011;49182;50.788;7.318;2022-10-03T15:44:45;9.43;;;1.70;;
43124;SDS011;49182;50.788;7.318;2022-10-03T15:47:18;7.40;;;1.45;;
43124;SDS011;49182;50.788;7.318;2022-10-03T15:49:47;7.30;;;1.58;;
43124;SDS011;49182;50.788;7.318;2022-10-03T15:52:19;8.05;;;1.70;;
43124;SDS011;49182;50.788;7.318;2022-10-03T15:54:49;6.10;;;1.70;;
43124;SDS011;49182;50.788;7.318;2022-10-03T15:57:39;7.18;;;1.58;;
43124;SDS011;49182;50.788;7.318;2022-10-03T16:00:17;6.40;;;1.20;;
43124;SDS011;49182;50.788;7.318;2022-10-03T16:02:47;8.77;;;1.50;;
43124;SDS011;49182;50.788;7.318;2022-10-03T16:05:18;4.85;;;1.55;;
43124;SDS011;49182;50.788;7.318;2022-10-03T16:07:48;4.47;;;1.63;;
43124;SDS011;49182;50.788;7.318;2022-10-03T16:10:23;8.00;;;2.00;;
43124;SDS011;49182;50.788;7.318;2022-10-03T16:12:58;8.27;;;2.08;;
43124;SDS011;49182;50.788;7.318;2022-10-03T16:15:35;5.32;;;1.85;;
43124;SDS011;49182;50.788;7.318;2022-10-03T16:21:21;6.85;;;1.42;;
43124;SDS011;49182;50.788;7.318;2022-10-03T16:23:55;7.75;;;1.52;;
43124;SDS011;49182;50.788;7.318;2022-10-03T16:26:26;7.30;;;1.50;;
43124;SDS011;49182;50.788;7.318;2022-10-03T16:28:59;5.00;;;1.35;;
43124;SDS011;49182;50.788;7.318;2022-10-03T16:31:33;6.47;;;1.48;;
43124;SDS011;49182;50.788;7.318;2022-10-03T16:34:06;10.05;;;3.63;;
43124;SDS011;49182;50.788;7.318;2022-10-03T16:36:40;6.28;;;1.60;;
43124;SDS011;49182;50.788;7.318;2022-10-03T16:39:14;5.45;;;1.58;;
43124;SDS011;49182;50.788;7.318;2022-10-03T16:41:44;4.80;;;1.40;;
43124;SDS011;49182;50.788;7.318;2022-10-03T16:44:17;7.95;;;1.80;;
43124;SDS011;49182;50.788;7.318;2022-10-03T16:46:48;8.95;;;1.80;;
43124;SDS011;49182;50.788;7.318;2022-10-03T16:49:28;5.35;;;1.88;;
43124;SDS011;49182;50.788;7.318;2022-10-03T16:52:01;5.13;;;1.50;;
43124;SDS011;49182;50.788;7.318;2022-10-03T16:54:29;4.40;;;1.70;;
43124;SDS011;49182;50.788;7.318;2022-10-03T16:56:57;6.40;;;1.80;;
43124;SDS011;49182;50.788;7.318;2022-10-03T16:59:27;11.32;;;2.00;;
43124;SDS011;49182;50.788;7.318;2022-10-03T17:01:56;7.07;;;1.90;;
43124;SDS011;49182;50.788;7.318;2022-10-03T17:04:29;5.65;;;1.90;;
43124;SDS011;49182;50.788;7.318;2022-10-03T17:06:58;7.88;;;1.90;;
43124;SDS011;49182;50.788;7.318;2022-10-03T17:09:29;6.45;;;2.47;;
43124;SDS011;49182;50.788;7.318;2022-10-03T17:12:02;8.35;;;2.20;;
43124;SDS011;49182;50.788;7.318;2022-10-03T17:14:34;7.18;;;2.20;;
43124;SDS011;49182;50.788;7.318;2022-10-03T17:17:05;11.02;;;2.53;;
43124;SDS011;49182;50.788;7.318;2022-10-03T17:19:41;6.47;;;2.20;;
43124;SDS011;49182;50.788;7.318;2022-10-03T17:22:12;8.23;;;2.20;;
43124;SDS011;49182;50.788;7.318;2022-10-03T17:24:46;12.38;;;2.53;;
43124;SDS011;49182;50.788;7.318;2022-10-03T17:27:18;12.10;;;2.47;;
43124;SDS011;49182;50.788;7.318;2022-10-03T17:29:52;6.30;;;2.30;;
43124;SDS011;49182;50.788;7.318;2022-10-03T17:32:24;6.57;;;2.92;;
43124;SDS011;49182;50.788;7.318;2022-10-03T17:37:34;8.18;;;2.88;;
43124;SDS011;49182;50.788;7.318;2022-10-03T17:40:14;13.07;;;4.30;;
43124;SDS011;49182;50.788;7.318;2022-10-03T17:42:48;13.40;;;6.85;;
43124;SDS011;49182;50.788;7.318;2022-10-03T17:48:10;9.73;;;5.55;;
43124;SDS011;49182;50.788;7.318;2022-10-03T17:50:47;11.55;;;4.20;;
43124;SDS011;49182;50.788;7.318;2022-10-03T17:53:24;12.43;;;4.40;;
43124;SDS011;49182;50.788;7.318;2022-10-03T17:55:55;11.23;;;5.30;;
43124;SDS011;49182;50.788;7.318;2022-10-03T17:58:25;14.00;;;5.97;;
43124;SDS011;49182;50.788;7.318;2022-10-03T18:00:58;17.33;;;8.15;;
43124;SDS011;49182;50.788;7.318;2022-10-03T18:03:32;14.88;;;7.65;;
43124;SDS011;49182;50.788;7.318;2022-10-03T18:09:08;14.45;;;5.38;;
43124;SDS011;49182;50.788;7.318;2022-10-03T18:11:44;11.52;;;4.90;;
43124;SDS011;49182;50.788;7.318;2022-10-03T18:14:14;14.32;;;6.00;;
43124;SDS011;49182;50.788;7.318;2022-10-03T18:16:54;14.40;;;6.40;;
43124;SDS011;49182;50.788;7.318;2022-10-03T18:19:32;10.27;;;4.45;;
43124;SDS011;49182;50.788;7.318;2022-10-03T18:22:14;9.02;;;4.15;;
43124;SDS011;49182;50.788;7.318;2022-10-03T18:24:49;12.18;;;5.55;;
43124;SDS011;49182;50.788;7.318;2022-10-03T18:30:26;12.77;;;4.28;;
43124;SDS011;49182;50.788;7.318;2022-10-03T18:33:00;8.25;;;4.03;;
43124;SDS011;49182;50.788;7.318;2022-10-03T18:35:33;8.65;;;4.22;;
43124;SDS011;49182;50.788;7.318;2022-10-03T18:38:05;11.23;;;4.20;;
43124;SDS011;49182;50.788;7.318;2022-10-03T18:40:39;12.48;;;4.60;;
43124;SDS011;49182;50.788;7.318;2022-10-03T18:43:14;14.05;;;5.22;;
43124;SDS011;49182;50.788;7.318;2022-10-03T18:45:53;12.77;;;5.10;;
43124;SDS011;49182;50.788;7.318;2022-10-03T18:48:28;11.82;;;6.22;;
43124;SDS011;49182;50.788;7.318;2022-10-03T18:51:02;10.30;;;4.82;;
43124;SDS011;49182;50.788;7.318;2022-10-03T18:53:36;13.23;;;6.72;;
43124;SDS011;49182;50.788;7.318;2022-10-03T18:56:04;11.02;;;4.97;;
43124;SDS011;49182;50.788;7.318;2022-10-03T18:58:35;10.05;;;4.95;;
43124;SDS011;49182;50.788;7.318;2022-10-03T19:01:05;15.30;;;4.50;;
43124;SDS011;49182;50.788;7.318;2022-10-03T19:03:39;8.85;;;3.75;;
43124;SDS011;49182;50.788;7.318;2022-10-03T19:06:12;9.85;;;4.15;;
43124;SDS011;49182;50.788;7.318;2022-10-03T19:08:47;8.30;;;4.45;;
43124;SDS011;49182;50.788;7.318;2022-10-03T19:11:16;7.22;;;4.15;;
43124;SDS011;49182;50.788;7.318;2022-10-03T19:13:51;10.88;;;4.25;;